Helmetta, New Jersey
Current Conditions -  °F | °C
As of 3:15 PM on Saturday 20 Dec 2014 (Local Time) from KLDJ Reporting Station
Overcast Overcast  
Wind Chill: 31°   Ceiling: 2700
Heat Index: 36°   Visibility: 10mi
Dew Point: 25°   Wind: 7mph
Humidity: 64%   Direction: 350°N
Pressure: 30.29"   Gusts: NA
Location:  40.38°N, 74.42°W
Report Text: KLDJ 202015Z AUTO 35006KT 10SM OVC027 02/M04 A3029 RMK AO2 T00241037
Loading
Personal Weather Stations






























Interactive Weather Map New forecast layout! Learn more

10-Day Weather Forecast

Advertisements
Track Severe Weather on mobile